createdAt,value
2018-08-13T05:07:01.815Z,1680.00
2018-08-13T05:10:36.885Z,3040.00
2018-08-13T05:11:36.932Z,3588.00
2018-08-13T05:12:36.840Z,4012.00
2018-08-13T05:16:02.702Z,5112.00
2018-08-13T05:17:02.454Z,5008.00
2018-08-13T05:18:02.584Z,4608.00
2018-08-13T05:19:02.427Z,3864.00
2018-08-13T05:20:02.467Z,3212.00
2018-08-13T05:21:02.415Z,2712.00
2018-08-13T05:22:02.442Z,2356.00
2018-08-13T05:23:02.411Z,2152.00
2018-08-13T05:24:02.371Z,2048.00
2018-08-13T05:25:02.364Z,2020.00
2018-08-13T05:26:02.355Z,2032.00
2018-08-13T05:27:02.337Z,2080.00
2018-08-13T05:28:02.386Z,2168.00
2018-08-13T05:29:02.372Z,2276.00
2018-08-13T05:30:02.394Z,2488.00
2018-08-13T05:31:02.313Z,2772.00
2018-08-13T05:32:02.285Z,3064.00
2018-08-13T05:33:02.280Z,3384.00
2018-08-13T05:34:02.259Z,3728.00
2018-08-13T05:35:03.821Z,4148.00
2018-08-13T05:36:02.283Z,4688.00
2018-08-13T05:37:02.486Z,5268.00
2018-08-13T05:38:02.266Z,5808.00
2018-08-13T05:39:02.213Z,6308.00
2018-08-13T05:40:02.195Z,6636.00
2018-08-13T05:41:02.184Z,6788.00
2018-08-13T05:42:02.189Z,6808.00
2018-08-13T05:43:02.161Z,6660.00
2018-08-13T05:44:03.127Z,6396.00
2018-08-13T05:45:05.104Z,5996.00
2018-08-13T05:46:02.513Z,5528.00
2018-08-13T05:47:02.487Z,5056.00
2018-08-13T05:48:02.290Z,4612.00
2018-08-13T05:49:02.211Z,4272.00
2018-08-13T05:50:02.149Z,4112.00
2018-08-13T05:51:02.244Z,4156.00
2018-08-13T05:52:02.220Z,4388.00
2018-08-13T05:53:02.258Z,4812.00
2018-08-13T05:54:02.125Z,5416.00
2018-08-13T05:55:02.080Z,6156.00
2018-08-13T05:56:02.107Z,6928.00
2018-08-13T05:57:02.085Z,7476.00
2018-08-13T05:58:02.093Z,7588.00
2018-08-13T05:59:02.074Z,7492.00
2018-08-13T06:00:02.108Z,7384.00
2018-08-13T06:01:02.962Z,7616.00
2018-08-13T06:02:02.068Z,7980.00
2018-08-13T06:03:02.105Z,8388.00
2018-08-13T06:04:02.084Z,8624.00
2018-08-13T06:05:01.958Z,8920.00
2018-08-13T06:06:01.916Z,9412.00
2018-08-13T06:07:01.914Z,10004.00
2018-08-13T06:08:02.062Z,10640.00
2018-08-13T06:09:01.961Z,11104.00
2018-08-13T06:10:01.871Z,11276.00
2018-08-13T06:11:01.893Z,11060.00
2018-08-13T06:12:01.871Z,10436.00
2018-08-13T06:13:01.839Z,9524.00
2018-08-13T06:14:01.900Z,8620.00
2018-08-13T06:15:01.814Z,7796.00
2018-08-13T06:16:01.816Z,7184.00
2018-08-13T06:17:01.820Z,6700.00
2018-08-13T06:18:01.838Z,6396.00
2018-08-13T06:19:01.788Z,6200.00
2018-08-13T06:20:01.776Z,6212.00
2018-08-13T06:21:01.755Z,6388.00
2018-08-13T06:22:01.816Z,6724.00
2018-08-13T06:23:01.924Z,7120.00
2018-08-13T06:26:09.267Z,8728.00
2018-08-13T06:27:08.669Z,9120.00
2018-08-13T06:28:08.711Z,9356.00
2018-08-13T06:29:08.609Z,9312.00
2018-08-13T06:30:08.508Z,8944.00
2018-08-13T06:31:08.434Z,8224.00
2018-08-13T06:32:08.478Z,7336.00
2018-08-13T06:33:08.428Z,6448.00
2018-08-13T06:34:08.471Z,5768.00
2018-08-13T06:35:08.497Z,5424.00
2018-08-13T06:36:08.462Z,5296.00
2018-08-13T06:37:08.424Z,5284.00
2018-08-13T06:38:08.422Z,5232.00
2018-08-13T06:39:11.543Z,5104.00
2018-08-13T06:41:25.555Z,4800.00
2018-08-13T06:42:25.155Z,4904.00
2018-08-13T06:43:25.149Z,5044.00
2018-08-13T06:44:25.127Z,5152.00
2018-08-13T06:45:25.172Z,5068.00
2018-08-13T06:46:25.160Z,4868.00
2018-08-13T06:47:25.099Z,4336.00
2018-08-13T06:48:25.081Z,3768.00
2018-08-13T06:49:25.143Z,3372.00
2018-08-13T06:50:25.070Z,3112.00
2018-08-13T06:51:25.158Z,3000.00
2018-08-13T06:52:25.032Z,3024.00
2018-08-13T06:53:25.046Z,3164.00
2018-08-13T06:54:25.025Z,3452.00
2018-08-13T06:55:25.009Z,3860.00
2018-08-13T06:56:24.982Z,4324.00
2018-08-13T06:57:25.120Z,4832.00
2018-08-13T06:58:24.981Z,5324.00
2018-08-13T06:59:24.954Z,5728.00
2018-08-13T07:00:24.970Z,6180.00
2018-08-13T07:01:25.076Z,6616.00
2018-08-13T07:02:24.963Z,6904.00
2018-08-13T07:03:25.321Z,7128.00
2018-08-13T07:04:24.907Z,7132.00
2018-08-13T07:05:24.929Z,6952.00
2018-08-13T07:06:24.971Z,6676.00
2018-08-13T07:07:24.872Z,6416.00
2018-08-13T07:08:24.913Z,6192.00
2018-08-13T07:09:29.839Z,6120.00
2018-08-13T07:10:24.858Z,6240.00
2018-08-13T07:11:24.851Z,6564.00
2018-08-13T07:12:24.956Z,6996.00
2018-08-13T07:13:24.804Z,7400.00
2018-08-13T07:14:24.790Z,7776.00
2018-08-13T07:15:24.777Z,7984.00
2018-08-13T07:16:24.835Z,7996.00
2018-08-13T07:17:24.753Z,7736.00
2018-08-13T07:18:24.774Z,7296.00
2018-08-13T07:19:24.731Z,6812.00
2018-08-13T07:20:24.716Z,6488.00
2018-08-13T07:21:24.706Z,6164.00
2018-08-13T07:22:24.775Z,5808.00
2018-08-13T07:23:24.681Z,5360.00
2018-08-13T07:24:24.692Z,4928.00
2018-08-13T07:25:24.673Z,4600.00
2018-08-13T07:26:24.649Z,4352.00
2018-08-13T07:27:24.640Z,4276.00
2018-08-13T07:28:24.649Z,4440.00
2018-08-13T07:29:24.654Z,4632.00
2018-08-13T07:30:24.630Z,4940.00
2018-08-13T07:31:24.591Z,5036.00
2018-08-13T07:32:24.582Z,5288.00
2018-08-13T07:33:24.621Z,5696.00
2018-08-13T07:34:24.605Z,6252.00
2018-08-13T07:35:24.547Z,6708.00
2018-08-13T07:36:24.539Z,6672.00
2018-08-13T07:37:24.528Z,7060.00
2018-08-13T07:38:24.518Z,7352.00
2018-08-13T07:39:24.523Z,7644.00
2018-08-13T07:40:24.511Z,8068.00
2018-08-13T07:41:24.516Z,8288.00
2018-08-13T07:42:24.480Z,8512.00
2018-08-13T07:43:24.521Z,8752.00
2018-08-13T07:44:24.449Z,9180.00
2018-08-13T07:45:24.475Z,9892.00
2018-08-13T07:46:24.465Z,10676.00
2018-08-13T07:47:24.414Z,11184.00
2018-08-13T07:48:24.414Z,11168.00
2018-08-13T07:49:24.390Z,11200.00
2018-08-13T07:50:24.401Z,11424.00
2018-08-13T07:51:24.369Z,11808.00
2018-08-13T07:52:24.360Z,12116.00
2018-08-13T07:53:24.361Z,12232.00
2018-08-13T07:54:24.335Z,12312.00
2018-08-13T07:55:24.326Z,12344.00
2018-08-13T07:56:24.341Z,12604.00
2018-08-13T07:57:24.302Z,12556.00
2018-08-13T07:58:24.294Z,12324.00
2018-08-13T07:59:24.279Z,12048.00
2018-08-13T08:00:24.291Z,12128.00
2018-08-13T08:01:24.271Z,12688.00
2018-08-13T08:02:24.273Z,13284.00
2018-08-13T08:03:24.241Z,13204.00
2018-08-13T08:04:24.227Z,12404.00
2018-08-13T08:05:24.211Z,11476.00
2018-08-13T08:06:24.204Z,11116.00
2018-08-13T08:07:24.198Z,11612.00
2018-08-13T08:08:24.197Z,12284.00
2018-08-13T08:09:24.171Z,13128.00
2018-08-13T08:10:24.157Z,13700.00
2018-08-13T08:11:24.161Z,14524.00
2018-08-13T08:12:24.781Z,15744.00
2018-08-13T08:13:24.132Z,17152.00
2018-08-13T08:14:24.137Z,18240.00
2018-08-13T08:15:24.105Z,18816.00
2018-08-13T08:16:24.118Z,19040.00
2018-08-13T08:17:24.087Z,18944.00
2018-08-13T08:18:24.083Z,18816.00
2018-08-13T08:19:24.064Z,18944.00
2018-08-13T08:20:24.044Z,18944.00
2018-08-13T08:21:24.109Z,19264.00
2018-08-13T08:22:24.035Z,19360.00
2018-08-13T08:23:24.020Z,20032.00
2018-08-13T08:24:24.051Z,20064.00
2018-08-13T08:25:24.010Z,19872.00
2018-08-13T08:26:23.980Z,19456.00
2018-08-13T08:27:24.027Z,19296.00
2018-08-13T08:28:23.973Z,18720.00
2018-08-13T08:29:24.041Z,18272.00
2018-08-13T08:30:24.010Z,17856.00
2018-08-13T08:31:23.937Z,17248.00
2018-08-13T08:32:23.938Z,16300.00
2018-08-13T08:33:23.919Z,15376.00
2018-08-13T08:34:23.905Z,14368.00
2018-08-13T08:35:23.914Z,13552.00
2018-08-13T08:36:23.873Z,12576.00
2018-08-13T08:37:23.896Z,11540.00
2018-08-13T08:38:23.870Z,10908.00
2018-08-13T08:39:23.841Z,10896.00
2018-08-13T08:40:23.877Z,11624.00
2018-08-13T08:41:23.826Z,13040.00
2018-08-13T08:42:23.808Z,14912.00
2018-08-13T08:43:23.809Z,17600.00
2018-08-13T08:44:23.791Z,20608.00
2018-08-13T08:45:23.767Z,22784.00
2018-08-13T08:46:24.963Z,23456.00
2018-08-13T08:47:23.755Z,22784.00
2018-08-13T08:48:23.794Z,21632.00
2018-08-13T08:49:23.742Z,21952.00
2018-08-13T08:50:23.719Z,26016.00
2018-08-13T08:51:23.756Z,23360.00
2018-08-13T08:52:23.691Z,23424.00
2018-08-13T08:53:23.734Z,22560.00
2018-08-13T08:54:23.681Z,20672.00
2018-08-13T08:55:23.660Z,18368.00
2018-08-13T08:56:23.692Z,17504.00
2018-08-13T08:57:23.675Z,18144.00
2018-08-13T08:58:23.645Z,19840.00
2018-08-13T08:59:23.634Z,21920.00
2018-08-13T09:00:23.606Z,23520.00
2018-08-13T09:01:23.631Z,23872.00
2018-08-13T09:02:23.620Z,22656.00
2018-08-13T09:03:23.593Z,20800.00
2018-08-13T09:04:23.588Z,19072.00
2018-08-13T09:05:23.552Z,17120.00
2018-08-13T09:06:23.546Z,14964.00
2018-08-13T09:07:23.558Z,13636.00
2018-08-13T09:08:23.517Z,13384.00
2018-08-13T09:09:23.868Z,13620.00
2018-08-13T09:10:23.715Z,14228.00
2018-08-13T09:11:23.540Z,15272.00
2018-08-13T09:12:23.525Z,15380.00
2018-08-13T09:13:23.473Z,14756.00
2018-08-13T09:14:23.471Z,14280.00
2018-08-13T09:15:23.442Z,15196.00
2018-08-13T09:16:23.454Z,16992.00
2018-08-13T09:17:23.418Z,18848.00
2018-08-13T09:18:23.418Z,19392.00
2018-08-13T09:19:23.424Z,19840.00
2018-08-13T09:20:23.396Z,20160.00
2018-08-13T09:21:23.378Z,19936.00
2018-08-13T09:22:23.444Z,19168.00
2018-08-13T09:23:23.360Z,18304.00
2018-08-13T09:24:23.341Z,17632.00
2018-08-13T09:25:23.363Z,17152.00
2018-08-13T09:26:23.360Z,16448.00
2018-08-13T09:27:23.313Z,15516.00
2018-08-13T09:28:23.317Z,14704.00
2018-08-13T09:29:23.289Z,13728.00
2018-08-13T09:30:23.280Z,12596.00
2018-08-13T09:31:23.269Z,11484.00
2018-08-13T09:32:23.278Z,10464.00
2018-08-13T09:33:23.251Z,9652.00
2018-08-13T09:34:23.296Z,9216.00
2018-08-13T09:35:23.231Z,9092.00
2018-08-13T09:36:23.215Z,9380.00
2018-08-13T09:37:23.200Z,10216.00
2018-08-13T09:38:23.241Z,11360.00
2018-08-13T09:39:23.181Z,13008.00
2018-08-13T09:40:23.178Z,14336.00
2018-08-13T09:41:23.175Z,14840.00
2018-08-13T09:42:23.146Z,14412.00
2018-08-13T09:43:23.139Z,13504.00
2018-08-13T09:44:23.146Z,13032.00
2018-08-13T09:45:23.114Z,13440.00
2018-08-13T09:46:23.114Z,13928.00
2018-08-13T09:47:23.096Z,14164.00
2018-08-13T09:48:23.082Z,14180.00
2018-08-13T09:49:23.082Z,14272.00
2018-08-13T09:50:23.073Z,14608.00
2018-08-13T09:51:23.052Z,15076.00
2018-08-13T09:52:23.038Z,15212.00
2018-08-13T09:53:23.037Z,15428.00
2018-08-13T09:54:23.022Z,15996.00
2018-08-13T09:55:23.027Z,16532.00
2018-08-13T09:56:23.694Z,16344.00
2018-08-13T09:57:22.977Z,15752.00
2018-08-13T09:58:22.972Z,15548.00
2018-08-13T09:59:22.963Z,15916.00
2018-08-13T10:00:22.987Z,16768.00
2018-08-13T10:01:22.959Z,17600.00
2018-08-13T10:02:22.926Z,18400.00
2018-08-13T10:03:22.955Z,19328.00
2018-08-13T10:04:22.918Z,20576.00
2018-08-13T10:05:22.896Z,21824.00
2018-08-13T10:06:22.924Z,22720.00
2018-08-13T10:07:22.874Z,23264.00
2018-08-13T10:08:22.860Z,24000.00
2018-08-13T10:09:22.898Z,25312.00
2018-08-13T10:10:22.854Z,26592.00
2018-08-13T10:11:22.846Z,27712.00
2018-08-13T10:12:22.822Z,28256.00
2018-08-13T10:13:22.815Z,28288.00
2018-08-13T10:14:22.796Z,28832.00
2018-08-13T10:15:22.780Z,29728.00
2018-08-13T10:16:22.785Z,29760.00
2018-08-13T10:17:22.769Z,32576.00
2018-08-13T10:18:22.774Z,34976.00
2018-08-13T10:19:22.760Z,40128.00
2018-08-13T10:20:22.987Z,49120.00
2018-08-13T10:21:22.738Z,81504.00
2018-08-13T10:22:22.759Z,65760.00
2018-08-13T10:23:22.708Z,49216.00
2018-08-13T10:24:22.741Z,44800.00
2018-08-13T10:25:22.774Z,45568.00
2018-08-13T10:26:22.663Z,50144.00
2018-08-13T10:27:22.655Z,69568.00
2018-08-13T10:28:22.654Z,64544.00
2018-08-13T10:29:22.658Z,59872.00
2018-08-13T10:30:22.648Z,54912.00
2018-08-13T10:31:22.704Z,52672.00
2018-08-13T10:32:22.681Z,46272.00
2018-08-13T10:33:22.665Z,44640.00
2018-08-13T10:34:22.638Z,44704.00
2018-08-13T10:35:22.712Z,47552.00
2018-08-13T10:36:23.247Z,53888.00
2018-08-13T10:37:22.620Z,64320.00
2018-08-13T10:38:22.542Z,66432.00
2018-08-13T10:39:22.529Z,76416.00
2018-08-13T10:40:22.518Z,79360.00
2018-08-13T10:41:22.531Z,67680.00
2018-08-13T10:42:22.524Z,57408.00
2018-08-13T10:43:22.518Z,64544.00
2018-08-13T10:44:22.479Z,62912.00
2018-08-13T10:45:22.469Z,61696.00
2018-08-13T10:46:22.491Z,49760.00
2018-08-13T10:47:22.448Z,43392.00
2018-08-13T10:48:22.427Z,40608.00
2018-08-13T10:49:22.425Z,38880.00
2018-08-13T10:50:22.482Z,38336.00
2018-08-13T10:51:22.521Z,38848.00
2018-08-13T10:52:22.437Z,40576.00
2018-08-13T10:53:22.393Z,42240.00
2018-08-13T10:54:22.426Z,43520.00
2018-08-13T10:55:22.362Z,44928.00
2018-08-13T10:56:22.459Z,50656.00
2018-08-13T10:57:22.342Z,50048.00
2018-08-13T10:58:22.431Z,51008.00
2018-08-13T10:59:22.335Z,64384.00
2018-08-13T11:00:22.448Z,87392.00
2018-08-13T11:01:22.545Z,162688.00
2018-08-13T11:02:22.300Z,144480.00
2018-08-13T11:03:22.338Z,50112.00
2018-08-13T11:06:17.864Z,39264.00
2018-08-13T11:07:16.657Z,40800.00
2018-08-13T11:08:17.149Z,54176.00
2018-08-13T11:09:16.364Z,47776.00
2018-08-13T11:10:16.281Z,47648.00
2018-08-13T11:11:16.247Z,47136.00
2018-08-13T11:12:19.393Z,51136.00
2018-08-13T11:13:16.218Z,44672.00
2018-08-13T11:14:16.225Z,48416.00
2018-08-13T11:15:19.008Z,114400.00
2018-08-13T11:16:16.323Z,54304.00
2018-08-13T11:28:23.389Z,39168.00
2018-08-13T11:29:22.689Z,38080.00
2018-08-13T11:32:04.194Z,35840.00
2018-08-13T11:33:04.047Z,33728.00
2018-08-13T11:35:22.106Z,30144.00
2018-08-13T11:36:21.666Z,29696.00
2018-08-13T11:37:21.699Z,29568.00
2018-08-13T11:38:21.700Z,29632.00
2018-08-13T11:39:21.710Z,30048.00
2018-08-13T11:40:21.651Z,32832.00
2018-08-13T11:41:21.597Z,31072.00
2018-08-13T11:44:47.742Z,29952.00
2018-08-13T11:45:45.453Z,29568.00
2018-08-13T11:46:45.284Z,29152.00
2018-08-13T11:48:55.654Z,29024.00
2018-08-13T11:49:55.278Z,28960.00
2018-08-13T11:50:55.273Z,28640.00
2018-08-13T11:51:55.860Z,27744.00
2018-08-13T11:52:55.525Z,27072.00
2018-08-13T11:53:55.353Z,26144.00
2018-08-13T11:54:55.371Z,25216.00
2018-08-13T11:55:55.236Z,24128.00
2018-08-13T11:56:55.303Z,22880.00
2018-08-13T11:57:55.877Z,21920.00
2018-08-13T11:58:55.184Z,21216.00
2018-08-13T11:59:55.891Z,20960.00
2018-08-13T12:01:06.131Z,21376.00
2018-08-13T12:01:56.294Z,22112.00
2018-08-13T12:02:55.256Z,23840.00
2018-08-13T12:03:55.181Z,25280.00
2018-08-13T12:04:56.924Z,26432.00
2018-08-13T12:07:09.804Z,25536.00
2018-08-13T12:08:09.483Z,23392.00
2018-08-13T12:14:30.145Z,18208.00
2018-08-13T12:18:12.139Z,17216.00
2018-08-13T12:19:13.003Z,17760.00
2018-08-13T12:28:05.297Z,22208.00
2018-08-13T12:29:05.540Z,22816.00
2018-08-13T12:30:05.545Z,24064.00
2018-08-13T12:49:37.987Z,15208.00
2018-08-13T12:50:37.600Z,15888.00
2018-08-13T12:52:55.609Z,18208.00
2018-08-13T12:53:55.560Z,19264.00
2018-08-13T13:08:02.510Z,11928.00
2018-08-13T13:08:57.210Z,11928.00
2018-08-13T13:09:57.180Z,11640.00
2018-08-13T13:10:57.167Z,11104.00
2018-08-13T13:11:57.155Z,10212.00
2018-08-13T13:12:57.146Z,9876.00
2018-08-13T13:13:57.200Z,10128.00
2018-08-13T13:14:58.034Z,11456.00
2018-08-13T13:15:57.429Z,12780.00
2018-08-13T13:18:18.443Z,16092.00
2018-08-13T13:19:18.366Z,18592.00
2018-08-13T13:20:18.410Z,20672.00
2018-08-13T13:21:18.213Z,22272.00
2018-08-13T13:22:18.195Z,23424.00
2018-08-13T13:23:18.116Z,23840.00
2018-08-13T13:24:18.133Z,24512.00
2018-08-13T13:25:18.145Z,24960.00
2018-08-13T13:26:18.092Z,25184.00
2018-08-13T13:27:18.102Z,24448.00
2018-08-13T13:28:18.064Z,23648.00
2018-08-13T13:29:20.143Z,23104.00
2018-08-13T13:30:18.084Z,22528.00
2018-08-13T13:31:18.036Z,21920.00
2018-08-13T13:32:18.070Z,20992.00
2018-08-13T13:33:18.789Z,19744.00
2018-08-13T13:34:18.009Z,18560.00
2018-08-13T13:35:18.572Z,17856.00
2018-08-13T13:36:18.064Z,17600.00
2018-08-13T13:37:18.196Z,17984.00
2018-08-13T13:38:17.987Z,18432.00
2018-08-13T13:39:17.953Z,18560.00
2018-08-13T13:40:18.203Z,18848.00
2018-08-13T13:41:17.933Z,18944.00
2018-08-13T13:42:18.029Z,19008.00
2018-08-13T13:43:18.087Z,18880.00
2018-08-13T13:44:18.016Z,18560.00
2018-08-13T13:52:37.944Z,9640.00
2018-08-13T13:53:22.335Z,8716.00
2018-08-13T13:54:20.452Z,7892.00
2018-08-13T13:55:19.268Z,7144.00
2018-08-13T13:56:19.741Z,6520.00
2018-08-13T14:01:32.677Z,4244.00
2018-08-13T14:02:31.743Z,4008.00
2018-08-13T14:03:31.685Z,3852.00
2018-08-13T14:04:31.768Z,3780.00
2018-08-13T14:05:31.670Z,3828.00
2018-08-13T14:06:31.651Z,4044.00
2018-08-13T14:07:31.773Z,4508.00
2018-08-13T14:08:31.645Z,5180.00
2018-08-13T14:09:31.688Z,6048.00
2018-08-13T14:10:31.608Z,6872.00
2018-08-13T14:11:31.594Z,7744.00
2018-08-13T14:12:31.651Z,8464.00
2018-08-13T14:13:31.727Z,8852.00
2018-08-13T14:14:31.608Z,9024.00
2018-08-13T14:15:31.573Z,9096.00
2018-08-13T14:16:31.542Z,9136.00
2018-08-13T14:17:31.644Z,9184.00
2018-08-13T14:18:31.542Z,8592.00
2018-08-13T14:19:31.502Z,8720.00
2018-08-13T14:20:31.538Z,7248.00
2018-08-13T14:21:31.578Z,6936.00
2018-08-13T14:22:31.477Z,8696.00
2018-08-13T14:23:31.482Z,9228.00
2018-08-13T14:24:31.572Z,8452.00
2018-08-13T14:25:31.438Z,8364.00
2018-08-13T14:26:31.459Z,9104.00
2018-08-13T14:27:31.429Z,9644.00
2018-08-13T14:28:31.416Z,9952.00
2018-08-13T14:29:31.400Z,9988.00
2018-08-13T14:30:31.414Z,10248.00
2018-08-13T14:31:31.470Z,10588.00
2018-08-13T14:32:31.433Z,10824.00
2018-08-13T14:33:31.363Z,11524.00
2018-08-13T14:34:31.533Z,12468.00
2018-08-13T14:35:31.436Z,14076.00
2018-08-13T14:36:31.368Z,17248.00
2018-08-13T14:37:31.357Z,21792.00
2018-08-13T14:38:31.350Z,23328.00
2018-08-13T14:39:31.310Z,24928.00
2018-08-13T14:40:31.275Z,27488.00
2018-08-13T14:41:31.320Z,28992.00
2018-08-13T14:42:31.253Z,28480.00
2018-08-13T14:43:31.244Z,27360.00
2018-08-13T14:44:31.261Z,25824.00
2018-08-13T14:45:31.226Z,24256.00
2018-08-13T14:46:31.212Z,23072.00
2018-08-13T14:47:31.196Z,22336.00
2018-08-13T14:48:31.185Z,22944.00
2018-08-13T14:49:31.214Z,24224.00
2018-08-13T14:50:31.192Z,25312.00
2018-08-13T14:51:31.152Z,26560.00
2018-08-13T14:52:31.201Z,27136.00
2018-08-13T14:53:31.192Z,28960.00
2018-08-13T14:54:31.157Z,30400.00
2018-08-13T14:55:31.130Z,29376.00
2018-08-13T14:56:31.159Z,25440.00
2018-08-13T14:57:31.097Z,23072.00
2018-08-13T14:58:31.101Z,22976.00
2018-08-13T14:59:31.068Z,24064.00
2018-08-13T15:00:31.056Z,23072.00
2018-08-13T15:01:31.086Z,21408.00
2018-08-13T15:02:31.053Z,19808.00
2018-08-13T15:03:31.029Z,16744.00
2018-08-13T15:04:31.012Z,13644.00
2018-08-13T15:05:31.178Z,11692.00
2018-08-13T15:06:30.996Z,10352.00
2018-08-13T15:07:31.015Z,9628.00
2018-08-13T15:08:31.119Z,7812.00
2018-08-13T15:09:30.961Z,7352.00
2018-08-13T15:10:30.947Z,6800.00
2018-08-13T15:11:30.992Z,7096.00
2018-08-13T15:12:30.943Z,9160.00
2018-08-13T15:13:30.913Z,12584.00
2018-08-13T15:14:31.271Z,12932.00
2018-08-13T15:15:30.888Z,11500.00
2018-08-13T15:16:30.895Z,14252.00
2018-08-13T15:17:30.901Z,13676.00
2018-08-13T15:18:30.893Z,12384.00
2018-08-13T15:19:30.865Z,10364.00
2018-08-13T15:20:30.837Z,9528.00
2018-08-13T15:21:30.877Z,8124.00
2018-08-13T15:22:30.828Z,6396.00
2018-08-13T15:23:30.842Z,6088.00
2018-08-13T15:24:30.814Z,5788.00
2018-08-13T15:25:30.813Z,5700.00
2018-08-13T15:26:30.774Z,5764.00
2018-08-13T15:27:31.013Z,5712.00
2018-08-13T15:28:30.747Z,5796.00
2018-08-13T15:29:30.749Z,6024.00
2018-08-13T15:30:30.783Z,6288.00
2018-08-13T15:31:30.713Z,6520.00
2018-08-13T15:32:30.705Z,6696.00
2018-08-13T15:33:30.754Z,6776.00
2018-08-13T15:34:30.684Z,6604.00
2018-08-13T15:35:30.702Z,6344.00
2018-08-13T15:36:30.695Z,5964.00
2018-08-13T15:37:30.667Z,5592.00
2018-08-13T15:38:31.024Z,5116.00
2018-08-13T15:39:30.627Z,4632.00
2018-08-13T15:40:30.626Z,3648.00
2018-08-13T15:41:30.652Z,3084.00
2018-08-13T15:42:30.627Z,2948.00
2018-08-13T15:43:30.604Z,3124.00
2018-08-13T15:44:30.573Z,4228.00
2018-08-13T15:45:30.553Z,6148.00
2018-08-13T15:46:30.565Z,7292.00
2018-08-13T15:47:30.533Z,8376.00
2018-08-13T15:48:30.528Z,9084.00
2018-08-13T15:49:30.543Z,8944.00
2018-08-13T15:50:30.501Z,8444.00
2018-08-13T15:51:30.502Z,8480.00
2018-08-13T15:52:30.495Z,8288.00
2018-08-13T15:53:30.537Z,7964.00
2018-08-13T15:54:30.458Z,7640.00
2018-08-13T15:55:30.500Z,7332.00
2018-08-13T15:56:30.453Z,7296.00
2018-08-13T15:57:30.428Z,7172.00
2018-08-13T15:58:30.409Z,7220.00
2018-08-13T15:59:30.427Z,7136.00
2018-08-13T16:00:30.412Z,7196.00
2018-08-13T16:01:30.384Z,7260.00
2018-08-13T16:02:30.383Z,7240.00
2018-08-13T16:03:30.354Z,7356.00
2018-08-13T16:04:30.360Z,7436.00
2018-08-13T16:05:30.335Z,7672.00
2018-08-13T16:06:30.452Z,7352.00
2018-08-13T16:07:30.310Z,6904.00
2018-08-13T16:08:30.331Z,6840.00
2018-08-13T16:09:30.288Z,6796.00
2018-08-13T16:10:30.275Z,6788.00
2018-08-13T16:11:30.308Z,6912.00
2018-08-13T16:12:30.281Z,7464.00
2018-08-13T16:13:30.865Z,9172.00
2018-08-13T16:14:30.506Z,10248.00
2018-08-13T16:19:35.957Z,19456.00
2018-08-13T16:20:38.204Z,18080.00
2018-08-13T16:28:43.971Z,9684.00
2018-08-13T17:17:28.899Z,4308.00
2018-08-13T17:18:28.879Z,4224.00
2018-08-13T17:19:28.861Z,4008.00
2018-08-13T17:20:28.817Z,3868.00
2018-08-13T17:21:28.980Z,3744.00
2018-08-13T17:22:29.215Z,3728.00
2018-08-13T17:23:29.558Z,3812.00
2018-08-13T17:27:51.612Z,4516.00
2018-08-13T17:28:51.470Z,4484.00
2018-08-13T17:29:51.440Z,4368.00
2018-08-13T17:30:51.521Z,4232.00
2018-08-13T17:31:53.941Z,4068.00
2018-08-13T17:36:30.590Z,3640.00
2018-08-13T17:37:30.694Z,3576.00
2018-08-13T17:40:10.746Z,3884.00
2018-08-13T17:42:24.561Z,3944.00
2018-08-13T17:51:59.726Z,3576.00
2018-08-13T17:52:59.343Z,3468.00
2018-08-13T17:54:00.424Z,3500.00
2018-08-13T17:54:59.452Z,3916.00
2018-08-13T17:55:59.252Z,4020.00
2018-08-13T17:56:59.238Z,4288.00
2018-08-13T17:57:59.475Z,3924.00
2018-08-13T17:58:59.255Z,3648.00
2018-08-13T17:59:59.221Z,3392.00
2018-08-13T18:00:59.197Z,3240.00
2018-08-13T18:01:59.318Z,3036.00
2018-08-13T18:02:59.204Z,3060.00
2018-08-13T18:03:59.166Z,3004.00
2018-08-13T18:04:59.179Z,3032.00
2018-08-13T18:36:54.272Z,944.00
2018-08-13T18:37:53.834Z,896.00
2018-08-13T18:38:54.047Z,852.00
2018-08-13T18:39:53.973Z,812.00
2018-08-13T18:40:53.972Z,772.00
2018-08-13T18:45:09.751Z,616.00
2018-08-13T18:46:11.789Z,576.00
2018-08-13T18:47:09.697Z,548.00
2018-08-13T18:48:09.724Z,516.00
2018-08-13T18:49:11.320Z,484.00
2018-08-13T18:50:09.700Z,452.00
2018-08-13T18:51:10.044Z,420.00
2018-08-13T18:52:09.519Z,388.00
2018-08-13T18:53:09.678Z,364.00
2018-08-13T18:54:09.554Z,332.00
2018-08-13T18:55:09.485Z,300.00
2018-08-13T18:56:09.454Z,272.00
2018-08-13T18:57:09.471Z,248.00
2018-08-13T18:58:09.427Z,232.00
2018-08-13T18:59:09.461Z,220.00
2018-08-13T19:00:09.520Z,200.00
2018-08-13T19:01:13.002Z,176.00
2018-08-13T19:02:09.427Z,156.00
2018-08-13T19:03:09.683Z,144.00
2018-08-13T19:04:09.520Z,132.00
2018-08-13T19:05:09.425Z,120.00
2018-08-13T19:06:09.455Z,104.00
2018-08-13T19:07:09.413Z,92.00
2018-08-13T19:08:09.428Z,80.00
2018-08-13T19:09:09.332Z,68.00
2018-08-13T19:10:09.434Z,60.00
2018-08-13T19:11:09.302Z,52.00
2018-08-13T19:12:09.277Z,48.00
2018-08-13T19:13:09.262Z,40.00
2018-08-13T19:14:09.282Z,32.00
2018-08-13T19:15:09.269Z,28.00
2018-08-13T19:16:09.242Z,28.00
2018-08-13T19:17:09.224Z,20.00
2018-08-13T19:18:09.212Z,20.00
2018-08-13T19:19:09.268Z,16.00
2018-08-13T19:20:09.193Z,16.00
2018-08-13T19:21:09.181Z,12.00
2018-08-13T19:22:09.177Z,12.00
2018-08-13T19:23:09.198Z,8.00
2018-08-13T19:24:09.181Z,8.00
2018-08-13T19:25:09.181Z,4.00
2018-08-13T19:26:09.128Z,8.00
2018-08-13T19:27:09.117Z,4.00
2018-08-13T19:28:09.164Z,4.00
2018-08-13T19:29:09.135Z,0.00
2018-08-13T19:30:09.086Z,4.00
2018-08-13T19:31:14.616Z,4.00
2018-08-13T19:38:56.781Z,0.00
2018-08-13T19:40:02.229Z,0.00
2018-08-13T19:40:53.604Z,0.00
2018-08-13T19:41:53.479Z,0.00
2018-08-13T19:42:53.507Z,0.00
2018-08-13T19:43:53.458Z,0.00
2018-08-13T19:44:53.356Z,0.00
2018-08-13T19:45:53.519Z,0.00
2018-08-13T19:46:53.332Z,0.00
2018-08-13T19:47:53.318Z,0.00
2018-08-13T19:48:54.272Z,0.00
2018-08-13T19:49:53.355Z,0.00
2018-08-13T19:50:53.283Z,0.00
2018-08-13T19:51:53.311Z,0.00
2018-08-13T19:52:53.268Z,0.00
2018-08-13T19:53:53.254Z,0.00
2018-08-13T19:54:53.252Z,0.00
2018-08-13T19:55:53.239Z,0.00
2018-08-13T19:56:53.239Z,0.00
2018-08-13T19:57:53.223Z,0.00
2018-08-13T19:58:53.201Z,0.00
2018-08-13T19:59:53.234Z,0.00
2018-08-13T20:00:53.176Z,0.00
2018-08-13T20:01:53.203Z,0.00
2018-08-13T20:02:53.193Z,0.00
2018-08-13T20:03:53.145Z,0.00
2018-08-13T20:04:53.147Z,0.00
2018-08-13T20:05:53.147Z,0.00
2018-08-13T20:06:53.120Z,0.00
2018-08-13T20:07:53.113Z,0.00
2018-08-13T20:08:53.119Z,0.00
2018-08-13T20:09:53.086Z,0.00
2018-08-13T20:10:53.083Z,0.00
2018-08-13T20:11:53.057Z,0.00
2018-08-13T20:12:53.047Z,0.00
2018-08-13T20:13:53.031Z,0.00
2018-08-13T20:14:53.030Z,0.00
2018-08-13T20:19:11.355Z,0.00
2018-08-13T20:20:20.250Z,0.00
2018-08-13T20:21:11.496Z,0.00
2018-08-13T20:22:10.698Z,0.00
2018-08-13T20:23:10.648Z,0.00
2018-08-13T20:24:10.510Z,0.00
2018-08-13T20:25:10.484Z,0.00
2018-08-13T20:26:10.635Z,0.00
2018-08-13T20:27:10.480Z,0.00
2018-08-13T20:28:10.493Z,0.00
2018-08-13T20:29:10.491Z,0.00
2018-08-13T20:30:10.533Z,0.00
2018-08-13T20:31:10.443Z,0.00
2018-08-13T20:32:10.438Z,0.00
2018-08-13T20:33:10.436Z,0.00
2018-08-13T20:34:10.386Z,0.00
2018-08-13T20:35:10.510Z,0.00
2018-08-13T20:36:10.473Z,0.00
2018-08-13T20:37:10.379Z,0.00
2018-08-13T20:38:11.452Z,0.00
2018-08-13T20:39:10.367Z,0.00
2018-08-13T20:40:10.388Z,0.00
2018-08-13T20:41:10.385Z,0.00
2018-08-13T20:42:11.860Z,0.00